sensor_id;sensor_type;location;lat;lon;timestamp;temperature;humidity
77829;DHT22;67019;51.034;3.728;2023-12-04T00:00:26;3.10;99.90
77829;DHT22;67019;51.034;3.728;2023-12-04T00:02:56;3.20;99.90
77829;DHT22;67019;51.034;3.728;2023-12-04T00:05:29;3.10;99.90
77829;DHT22;67019;51.034;3.728;2023-12-04T00:07:54;3.00;99.90
77829;DHT22;67019;51.034;3.728;2023-12-04T00:10:26;2.70;99.90
77829;DHT22;67019;51.034;3.728;2023-12-04T00:12:55;2.80;99.90
77829;DHT22;67019;51.034;3.728;2023-12-04T00:15:24;2.90;99.90
77829;DHT22;67019;51.034;3.728;2023-12-04T00:17:53;3.00;99.90
77829;DHT22;67019;51.034;3.728;2023-12-04T00:20:24;2.90;99.90
77829;DHT22;67019;51.034;3.728;2023-12-04T00:22:52;3.00;99.90
77829;DHT22;67019;51.034;3.728;2023-12-04T00:25:21;3.00;99.90
77829;DHT22;67019;51.034;3.728;2023-12-04T00:27:53;2.90;99.90
77829;DHT22;67019;51.034;3.728;2023-12-04T00:30:27;3.60;99.90
77829;DHT22;67019;51.034;3.728;2023-12-04T00:32:55;2.80;99.90
77829;DHT22;67019;51.034;3.728;2023-12-04T00:35:22;2.80;99.90
77829;DHT22;67019;51.034;3.728;2023-12-04T00:37:50;2.60;99.90
77829;DHT22;67019;51.034;3.728;2023-12-04T00:40:19;2.70;99.90
77829;DHT22;67019;51.034;3.728;2023-12-04T00:42:54;2.60;99.90
77829;DHT22;67019;51.034;3.728;2023-12-04T00:45:22;2.70;99.90
77829;DHT22;67019;51.034;3.728;2023-12-04T00:47:52;2.90;99.90
77829;DHT22;67019;51.034;3.728;2023-12-04T00:50:18;2.80;99.90
77829;DHT22;67019;51.034;3.728;2023-12-04T00:52:47;2.80;99.90
77829;DHT22;67019;51.034;3.728;2023-12-04T00:55:20;2.80;99.90
77829;DHT22;67019;51.034;3.728;2023-12-04T00:57:47;2.90;99.90
77829;DHT22;67019;51.034;3.728;2023-12-04T01:00:15;2.90;99.90
77829;DHT22;67019;51.034;3.728;2023-12-04T01:02:48;3.00;99.90
77829;DHT22;67019;51.034;3.728;2023-12-04T01:05:12;2.90;99.90
77829;DHT22;67019;51.034;3.728;2023-12-04T01:07:43;2.90;99.90
77829;DHT22;67019;51.034;3.728;2023-12-04T01:10:12;2.50;99.90
77829;DHT22;67019;51.034;3.728;2023-12-04T01:12:44;2.80;99.90
77829;DHT22;67019;51.034;3.728;2023-12-04T01:15:09;2.80;99.90
77829;DHT22;67019;51.034;3.728;2023-12-04T01:17:38;2.80;99.90
77829;DHT22;67019;51.034;3.728;2023-12-04T01:20:10;3.00;99.90
77829;DHT22;67019;51.034;3.728;2023-12-04T01:22:37;3.00;99.90
77829;DHT22;67019;51.034;3.728;2023-12-04T01:25:08;3.00;99.90
77829;DHT22;67019;51.034;3.728;2023-12-04T01:27:35;2.80;99.90
77829;DHT22;67019;51.034;3.728;2023-12-04T01:30:05;3.00;99.90
77829;DHT22;67019;51.034;3.728;2023-12-04T01:32:35;2.60;99.90
77829;DHT22;67019;51.034;3.728;2023-12-04T01:35:06;2.80;99.90
77829;DHT22;67019;51.034;3.728;2023-12-04T01:37:34;2.90;99.90
77829;DHT22;67019;51.034;3.728;2023-12-04T01:40:01;2.90;99.90
77829;DHT22;67019;51.034;3.728;2023-12-04T01:42:34;3.00;99.90
77829;DHT22;67019;51.034;3.728;2023-12-04T01:44:59;3.20;99.90
77829;DHT22;67019;51.034;3.728;2023-12-04T01:47:28;3.20;99.90
77829;DHT22;67019;51.034;3.728;2023-12-04T01:49:58;3.10;99.90
77829;DHT22;67019;51.034;3.728;2023-12-04T01:52:25;3.30;99.90
77829;DHT22;67019;51.034;3.728;2023-12-04T01:54:55;3.20;99.90
77829;DHT22;67019;51.034;3.728;2023-12-04T01:59:51;3.00;99.90
77829;DHT22;67019;51.034;3.728;2023-12-04T02:02:19;2.90;99.90
77829;DHT22;67019;51.034;3.728;2023-12-04T02:04:47;3.10;99.90
77829;DHT22;67019;51.034;3.728;2023-12-04T02:07:15;3.60;99.90
77829;DHT22;67019;51.034;3.728;2023-12-04T02:09:42;3.00;99.90
77829;DHT22;67019;51.034;3.728;2023-12-04T02:12:10;3.00;99.90
77829;DHT22;67019;51.034;3.728;2023-12-04T02:14:38;2.90;99.90
77829;DHT22;67019;51.034;3.728;2023-12-04T02:17:06;2.90;99.90
77829;DHT22;67019;51.034;3.728;2023-12-04T02:19:35;3.00;99.90
77829;DHT22;67019;51.034;3.728;2023-12-04T02:22:03;3.00;99.90
77829;DHT22;67019;51.034;3.728;2023-12-04T02:24:31;3.00;99.90
77829;DHT22;67019;51.034;3.728;2023-12-04T02:27:11;2.70;99.90
77829;DHT22;67019;51.034;3.728;2023-12-04T02:29:37;3.00;99.90
77829;DHT22;67019;51.034;3.728;2023-12-04T02:32:06;3.00;99.90
77829;DHT22;67019;51.034;3.728;2023-12-04T02:34:36;2.90;99.90
77829;DHT22;67019;51.034;3.728;2023-12-04T02:37:06;2.90;99.90
77829;DHT22;67019;51.034;3.728;2023-12-04T02:39:34;2.90;99.90
77829;DHT22;67019;51.034;3.728;2023-12-04T02:42:02;2.80;99.90
77829;DHT22;67019;51.034;3.728;2023-12-04T02:44:30;2.90;99.90
77829;DHT22;67019;51.034;3.728;2023-12-04T02:46:57;2.90;99.90
77829;DHT22;67019;51.034;3.728;2023-12-04T02:49:25;2.90;99.90
77829;DHT22;67019;51.034;3.728;2023-12-04T02:51:52;3.00;99.90
77829;DHT22;67019;51.034;3.728;2023-12-04T02:54:25;2.90;99.90
77829;DHT22;67019;51.034;3.728;2023-12-04T02:56:51;3.00;99.90
77829;DHT22;67019;51.034;3.728;2023-12-04T02:59:19;3.10;99.90
77829;DHT22;67019;51.034;3.728;2023-12-04T03:01:49;3.00;99.90
77829;DHT22;67019;51.034;3.728;2023-12-04T03:06:44;2.90;99.90
77829;DHT22;67019;51.034;3.728;2023-12-04T03:09:11;2.90;99.90
77829;DHT22;67019;51.034;3.728;2023-12-04T03:11:40;2.90;99.90
77829;DHT22;67019;51.034;3.728;2023-12-04T03:14:08;2.90;99.90
77829;DHT22;67019;51.034;3.728;2023-12-04T03:16:37;3.00;99.90
77829;DHT22;67019;51.034;3.728;2023-12-04T03:19:05;3.00;99.90
77829;DHT22;67019;51.034;3.728;2023-12-04T03:21:34;3.00;99.90
77829;DHT22;67019;51.034;3.728;2023-12-04T03:24:04;3.00;99.90
77829;DHT22;67019;51.034;3.728;2023-12-04T03:26:32;2.90;99.90
77829;DHT22;67019;51.034;3.728;2023-12-04T03:29:00;2.90;99.90
77829;DHT22;67019;51.034;3.728;2023-12-04T03:31:28;2.90;99.90
77829;DHT22;67019;51.034;3.728;2023-12-04T03:33:57;3.10;99.90
77829;DHT22;67019;51.034;3.728;2023-12-04T03:36:25;3.10;99.90
77829;DHT22;67019;51.034;3.728;2023-12-04T03:38:52;3.20;99.90
77829;DHT22;67019;51.034;3.728;2023-12-04T03:41:20;3.20;99.90
77829;DHT22;67019;51.034;3.728;2023-12-04T03:43:49;3.10;99.90
77829;DHT22;67019;51.034;3.728;2023-12-04T03:46:18;3.10;99.90
77829;DHT22;67019;51.034;3.728;2023-12-04T03:48:46;3.00;99.90
77829;DHT22;67019;51.034;3.728;2023-12-04T03:51:15;3.10;99.90
77829;DHT22;67019;51.034;3.728;2023-12-04T03:53:43;3.10;99.90
77829;DHT22;67019;51.034;3.728;2023-12-04T03:56:12;3.10;99.90
77829;DHT22;67019;51.034;3.728;2023-12-04T03:58:44;3.30;99.90
77829;DHT22;67019;51.034;3.728;2023-12-04T04:01:11;3.30;99.90
77829;DHT22;67019;51.034;3.728;2023-12-04T04:03:39;3.30;99.90
77829;DHT22;67019;51.034;3.728;2023-12-04T04:06:09;3.00;99.90
77829;DHT22;67019;51.034;3.728;2023-12-04T04:08:37;3.30;99.90
77829;DHT22;67019;51.034;3.728;2023-12-04T04:11:04;3.30;99.90
77829;DHT22;67019;51.034;3.728;2023-12-04T04:13:32;3.40;99.90
77829;DHT22;67019;51.034;3.728;2023-12-04T04:16:01;3.30;99.90
77829;DHT22;67019;51.034;3.728;2023-12-04T04:18:29;3.80;99.90
77829;DHT22;67019;51.034;3.728;2023-12-04T04:20:56;3.30;99.90
77829;DHT22;67019;51.034;3.728;2023-12-04T04:23:24;3.30;99.90
77829;DHT22;67019;51.034;3.728;2023-12-04T04:25:52;3.50;99.90
77829;DHT22;67019;51.034;3.728;2023-12-04T04:28:19;3.30;99.90
77829;DHT22;67019;51.034;3.728;2023-12-04T04:30:47;3.30;99.90
77829;DHT22;67019;51.034;3.728;2023-12-04T04:33:19;3.30;99.90
77829;DHT22;67019;51.034;3.728;2023-12-04T04:35:53;3.40;99.90
77829;DHT22;67019;51.034;3.728;2023-12-04T04:38:13;3.30;99.90
77829;DHT22;67019;51.034;3.728;2023-12-04T04:40:40;3.20;99.90
77829;DHT22;67019;51.034;3.728;2023-12-04T04:43:10;3.30;99.90
77829;DHT22;67019;51.034;3.728;2023-12-04T04:45:38;3.40;99.90
77829;DHT22;67019;51.034;3.728;2023-12-04T04:48:06;6.40;99.90
77829;DHT22;67019;51.034;3.728;2023-12-04T04:50:33;3.40;99.90
77829;DHT22;67019;51.034;3.728;2023-12-04T04:53:01;3.60;99.90
77829;DHT22;67019;51.034;3.728;2023-12-04T04:55:29;3.40;99.90
77829;DHT22;67019;51.034;3.728;2023-12-04T04:57:58;3.50;99.90
77829;DHT22;67019;51.034;3.728;2023-12-04T05:00:26;3.50;99.90
77829;DHT22;67019;51.034;3.728;2023-12-04T05:02:53;3.50;99.90
77829;DHT22;67019;51.034;3.728;2023-12-04T05:05:21;3.40;99.90
77829;DHT22;67019;51.034;3.728;2023-12-04T05:07:49;3.60;99.90
77829;DHT22;67019;51.034;3.728;2023-12-04T05:10:16;3.60;99.90
77829;DHT22;67019;51.034;3.728;2023-12-04T05:12:44;3.50;99.90
77829;DHT22;67019;51.034;3.728;2023-12-04T05:15:13;3.50;99.90
77829;DHT22;67019;51.034;3.728;2023-12-04T05:17:43;3.60;99.90
77829;DHT22;67019;51.034;3.728;2023-12-04T05:20:10;3.60;99.90
77829;DHT22;67019;51.034;3.728;2023-12-04T05:22:39;3.70;99.90
77829;DHT22;67019;51.034;3.728;2023-12-04T05:25:07;4.90;99.90
77829;DHT22;67019;51.034;3.728;2023-12-04T05:27:35;3.50;99.90
77829;DHT22;67019;51.034;3.728;2023-12-04T05:30:04;3.50;99.90
77829;DHT22;67019;51.034;3.728;2023-12-04T05:32:32;3.60;99.90
77829;DHT22;67019;51.034;3.728;2023-12-04T05:35:01;3.60;99.90
77829;DHT22;67019;51.034;3.728;2023-12-04T05:37:30;3.70;99.90
77829;DHT22;67019;51.034;3.728;2023-12-04T05:39:58;3.60;99.90
77829;DHT22;67019;51.034;3.728;2023-12-04T05:42:26;3.60;99.90
77829;DHT22;67019;51.034;3.728;2023-12-04T05:44:53;3.60;99.90
77829;DHT22;67019;51.034;3.728;2023-12-04T05:47:22;3.60;99.90
77829;DHT22;67019;51.034;3.728;2023-12-04T05:49:49;3.50;99.90
77829;DHT22;67019;51.034;3.728;2023-12-04T05:52:17;3.60;99.90
77829;DHT22;67019;51.034;3.728;2023-12-04T05:54:45;3.70;99.90
77829;DHT22;67019;51.034;3.728;2023-12-04T05:57:12;3.70;99.90
77829;DHT22;67019;51.034;3.728;2023-12-04T05:59:40;3.90;99.90
77829;DHT22;67019;51.034;3.728;2023-12-04T06:02:08;3.70;99.90
77829;DHT22;67019;51.034;3.728;2023-12-04T06:04:35;3.70;99.90
77829;DHT22;67019;51.034;3.728;2023-12-04T06:07:03;3.50;99.90
77829;DHT22;67019;51.034;3.728;2023-12-04T06:09:32;3.70;99.90
77829;DHT22;67019;51.034;3.728;2023-12-04T06:12:02;3.80;99.90
77829;DHT22;67019;51.034;3.728;2023-12-04T06:14:49;3.70;99.90
77829;DHT22;67019;51.034;3.728;2023-12-04T06:17:19;3.90;99.90
77829;DHT22;67019;51.034;3.728;2023-12-04T06:19:48;3.70;99.90
77829;DHT22;67019;51.034;3.728;2023-12-04T06:22:28;3.60;99.90
77829;DHT22;67019;51.034;3.728;2023-12-04T06:28:17;3.60;99.90
77829;DHT22;67019;51.034;3.728;2023-12-04T06:30:49;3.60;99.90
77829;DHT22;67019;51.034;3.728;2023-12-04T06:33:19;3.70;99.90
77829;DHT22;67019;51.034;3.728;2023-12-04T06:42:29;3.70;99.90
77829;DHT22;67019;51.034;3.728;2023-12-04T07:04:34;3.70;99.90
77829;DHT22;67019;51.034;3.728;2023-12-04T07:07:02;3.70;99.90
77829;DHT22;67019;51.034;3.728;2023-12-04T07:09:32;3.70;99.90
77829;DHT22;67019;51.034;3.728;2023-12-04T07:12:01;2.30;99.90
77829;DHT22;67019;51.034;3.728;2023-12-04T07:14:30;3.70;99.90
77829;DHT22;67019;51.034;3.728;2023-12-04T07:17:21;3.70;99.90
77829;DHT22;67019;51.034;3.728;2023-12-04T07:20:16;3.70;99.90
77829;DHT22;67019;51.034;3.728;2023-12-04T07:29:28;3.70;99.90
77829;DHT22;67019;51.034;3.728;2023-12-04T07:35:11;3.60;99.90
77829;DHT22;67019;51.034;3.728;2023-12-04T07:37:38;3.50;99.90
77829;DHT22;67019;51.034;3.728;2023-12-04T07:40:07;3.50;99.90
77829;DHT22;67019;51.034;3.728;2023-12-04T07:46:05;3.60;99.90
77829;DHT22;67019;51.034;3.728;2023-12-04T08:01:59;3.30;99.90
77829;DHT22;67019;51.034;3.728;2023-12-04T08:14:33;3.10;99.90
77829;DHT22;67019;51.034;3.728;2023-12-04T08:27:07;3.20;99.90
77829;DHT22;67019;51.034;3.728;2023-12-04T08:32:58;3.20;99.90
77829;DHT22;67019;51.034;3.728;2023-12-04T08:35:28;3.30;99.90
77829;DHT22;67019;51.034;3.728;2023-12-04T08:37:55;3.30;99.90
77829;DHT22;67019;51.034;3.728;2023-12-04T08:40:26;3.30;99.90
77829;DHT22;67019;51.034;3.728;2023-12-04T08:52:54;3.30;99.90
77829;DHT22;67019;51.034;3.728;2023-12-04T08:58:45;3.50;99.90
77829;DHT22;67019;51.034;3.728;2023-12-04T09:14:30;3.50;99.90
77829;DHT22;67019;51.034;3.728;2023-12-04T09:20:21;3.50;99.90
77829;DHT22;67019;51.034;3.728;2023-12-04T09:22:50;3.40;99.90
77829;DHT22;67019;51.034;3.728;2023-12-04T09:25:17;3.20;99.90
77829;DHT22;67019;51.034;3.728;2023-12-04T09:27:46;3.30;99.90
77829;DHT22;67019;51.034;3.728;2023-12-04T09:33:48;3.30;99.90
77829;DHT22;67019;51.034;3.728;2023-12-04T09:49:37;3.30;99.90
77829;DHT22;67019;51.034;3.728;2023-12-04T09:52:07;3.10;99.90
77829;DHT22;67019;51.034;3.728;2023-12-04T09:54:36;3.20;99.90
77829;DHT22;67019;51.034;3.728;2023-12-04T09:57:32;3.10;99.90
77829;DHT22;67019;51.034;3.728;2023-12-04T10:03:53;3.10;99.90
77829;DHT22;67019;51.034;3.728;2023-12-04T10:10:13;2.90;99.90
77829;DHT22;67019;51.034;3.728;2023-12-04T10:19:19;2.80;99.90
77829;DHT22;67019;51.034;3.728;2023-12-04T10:21:55;2.90;99.90
77829;DHT22;67019;51.034;3.728;2023-12-04T11:02:58;2.70;99.90
77829;DHT22;67019;51.034;3.728;2023-12-04T11:05:29;2.80;99.90
77829;DHT22;67019;51.034;3.728;2023-12-04T11:07:57;2.70;99.90
77829;DHT22;67019;51.034;3.728;2023-12-04T11:10:33;2.70;99.90
77829;DHT22;67019;51.034;3.728;2023-12-04T11:13:08;2.80;99.90
77829;DHT22;67019;51.034;3.728;2023-12-04T11:15:41;2.80;99.90
77829;DHT22;67019;51.034;3.728;2023-12-04T11:21:32;2.70;99.90
77829;DHT22;67019;51.034;3.728;2023-12-04T11:27:46;2.80;99.90
77829;DHT22;67019;51.034;3.728;2023-12-04T11:40:25;2.90;99.90
77829;DHT22;67019;51.034;3.728;2023-12-04T11:42:52;2.90;99.90
77829;DHT22;67019;51.034;3.728;2023-12-04T11:45:20;2.90;99.90
77829;DHT22;67019;51.034;3.728;2023-12-04T11:57:56;3.20;99.90
77829;DHT22;67019;51.034;3.728;2023-12-04T12:00:24;3.20;99.90
77829;DHT22;67019;51.034;3.728;2023-12-04T12:05:30;3.40;99.90
77829;DHT22;67019;51.034;3.728;2023-12-04T12:08:02;3.30;99.90
77829;DHT22;67019;51.034;3.728;2023-12-04T12:26:13;3.40;99.90
77829;DHT22;67019;51.034;3.728;2023-12-04T12:28:40;3.40;99.90
77829;DHT22;67019;51.034;3.728;2023-12-04T12:31:13;3.60;99.90
77829;DHT22;67019;51.034;3.728;2023-12-04T13:15:08;4.00;99.90
77829;DHT22;67019;51.034;3.728;2023-12-04T13:21:08;4.00;99.90
77829;DHT22;67019;51.034;3.728;2023-12-04T13:53:18;3.80;99.90
77829;DHT22;67019;51.034;3.728;2023-12-04T13:59:12;3.70;99.90
77829;DHT22;67019;51.034;3.728;2023-12-04T14:01:41;3.70;99.90
77829;DHT22;67019;51.034;3.728;2023-12-04T14:04:09;3.80;99.90
77829;DHT22;67019;51.034;3.728;2023-12-04T14:30:20;3.70;99.90
77829;DHT22;67019;51.034;3.728;2023-12-04T14:43:00;3.60;99.90
77829;DHT22;67019;51.034;3.728;2023-12-04T15:08:48;3.60;99.90
77829;DHT22;67019;51.034;3.728;2023-12-04T15:22:02;3.60;99.90
77829;DHT22;67019;51.034;3.728;2023-12-04T15:31:25;3.40;99.90
77829;DHT22;67019;51.034;3.728;2023-12-04T15:33:53;3.50;99.90
77829;DHT22;67019;51.034;3.728;2023-12-04T15:36:21;3.60;99.90
77829;DHT22;67019;51.034;3.728;2023-12-04T15:48:45;3.80;99.90
77829;DHT22;67019;51.034;3.728;2023-12-04T15:51:16;3.70;99.90
77829;DHT22;67019;51.034;3.728;2023-12-04T15:53:48;3.80;99.90
77829;DHT22;67019;51.034;3.728;2023-12-04T15:56:43;3.90;99.90
77829;DHT22;67019;51.034;3.728;2023-12-04T16:09:26;4.00;99.90
77829;DHT22;67019;51.034;3.728;2023-12-04T16:18:50;3.80;99.90
77829;DHT22;67019;51.034;3.728;2023-12-04T16:24:52;3.80;99.90
77829;DHT22;67019;51.034;3.728;2023-12-04T16:37:54;3.70;99.90
77829;DHT22;67019;51.034;3.728;2023-12-04T17:32:12;4.00;99.90
77829;DHT22;67019;51.034;3.728;2023-12-04T17:50:39;4.10;99.90
77829;DHT22;67019;51.034;3.728;2023-12-04T17:53:04;4.20;99.90
77829;DHT22;67019;51.034;3.728;2023-12-04T17:55:32;4.30;99.90
77829;DHT22;67019;51.034;3.728;2023-12-04T17:58:03;4.10;99.90
77829;DHT22;67019;51.034;3.728;2023-12-04T18:00:34;4.20;99.90
77829;DHT22;67019;51.034;3.728;2023-12-04T18:03:04;4.20;99.90
77829;DHT22;67019;51.034;3.728;2023-12-04T18:05:58;4.30;99.90
77829;DHT22;67019;51.034;3.728;2023-12-04T18:11:45;4.20;99.90
77829;DHT22;67019;51.034;3.728;2023-12-04T18:14:13;4.20;99.90
77829;DHT22;67019;51.034;3.728;2023-12-04T18:16:41;4.20;99.90
77829;DHT22;67019;51.034;3.728;2023-12-04T18:19:10;4.10;99.90
77829;DHT22;67019;51.034;3.728;2023-12-04T18:21:38;4.00;99.90
77829;DHT22;67019;51.034;3.728;2023-12-04T18:27:36;4.30;99.90
77829;DHT22;67019;51.034;3.728;2023-12-04T18:30:03;4.30;99.90
77829;DHT22;67019;51.034;3.728;2023-12-04T18:32:32;4.30;99.90
77829;DHT22;67019;51.034;3.728;2023-12-04T18:47:57;4.30;99.90
77829;DHT22;67019;51.034;3.728;2023-12-04T18:50:33;4.40;99.90
77829;DHT22;67019;51.034;3.728;2023-12-04T19:09:52;4.40;99.90
77829;DHT22;67019;51.034;3.728;2023-12-04T19:12:24;4.40;99.90
77829;DHT22;67019;51.034;3.728;2023-12-04T19:21:14;4.40;99.90
77829;DHT22;67019;51.034;3.728;2023-12-04T19:27:20;4.50;99.90
77829;DHT22;67019;51.034;3.728;2023-12-04T19:29:52;4.50;99.90
77829;DHT22;67019;51.034;3.728;2023-12-04T19:32:23;4.60;99.90
77829;DHT22;67019;51.034;3.728;2023-12-04T19:38:31;4.60;99.90
77829;DHT22;67019;51.034;3.728;2023-12-04T19:41:00;4.40;99.90
77829;DHT22;67019;51.034;3.728;2023-12-04T19:43:29;4.70;99.90
77829;DHT22;67019;51.034;3.728;2023-12-04T19:46:23;4.70;99.90
77829;DHT22;67019;51.034;3.728;2023-12-04T19:55:20;4.50;99.90
77829;DHT22;67019;51.034;3.728;2023-12-04T20:01:52;4.60;99.90
77829;DHT22;67019;51.034;3.728;2023-12-04T20:11:11;4.50;99.90
77829;DHT22;67019;51.034;3.728;2023-12-04T20:20:23;4.70;99.90
77829;DHT22;67019;51.034;3.728;2023-12-04T20:23:21;4.70;99.90
77829;DHT22;67019;51.034;3.728;2023-12-04T20:29:00;4.70;99.90
77829;DHT22;67019;51.034;3.728;2023-12-04T20:31:29;4.70;99.90
77829;DHT22;67019;51.034;3.728;2023-12-04T20:34:02;4.80;99.90
77829;DHT22;67019;51.034;3.728;2023-12-04T20:36:44;4.80;99.90
77829;DHT22;67019;51.034;3.728;2023-12-04T20:42:52;4.90;99.90
77829;DHT22;67019;51.034;3.728;2023-12-04T20:58:34;5.00;99.90
77829;DHT22;67019;51.034;3.728;2023-12-04T21:18:59;5.10;99.90
77829;DHT22;67019;51.034;3.728;2023-12-04T21:21:29;5.10;99.90
77829;DHT22;67019;51.034;3.728;2023-12-04T21:23:57;5.10;99.90
77829;DHT22;67019;51.034;3.728;2023-12-04T21:26:24;5.10;99.90
77829;DHT22;67019;51.034;3.728;2023-12-04T21:28:52;4.90;99.90
77829;DHT22;67019;51.034;3.728;2023-12-04T21:31:24;5.00;99.90
77829;DHT22;67019;51.034;3.728;2023-12-04T21:33:53;5.10;99.90
77829;DHT22;67019;51.034;3.728;2023-12-04T21:36:20;4.90;99.90
77829;DHT22;67019;51.034;3.728;2023-12-04T21:38:56;5.10;99.90
77829;DHT22;67019;51.034;3.728;2023-12-04T21:41:24;5.30;99.90
77829;DHT22;67019;51.034;3.728;2023-12-04T21:43:53;5.40;99.90
77829;DHT22;67019;51.034;3.728;2023-12-04T21:46:21;5.20;99.90
77829;DHT22;67019;51.034;3.728;2023-12-04T21:48:49;4.90;99.90
77829;DHT22;67019;51.034;3.728;2023-12-04T21:51:16;4.90;99.90
77829;DHT22;67019;51.034;3.728;2023-12-04T21:53:44;5.00;99.90
77829;DHT22;67019;51.034;3.728;2023-12-04T21:56:11;5.10;99.90
77829;DHT22;67019;51.034;3.728;2023-12-04T21:58:45;5.10;99.90
77829;DHT22;67019;51.034;3.728;2023-12-04T22:01:14;5.10;99.90
77829;DHT22;67019;51.034;3.728;2023-12-04T22:03:42;5.10;99.90
77829;DHT22;67019;51.034;3.728;2023-12-04T22:06:11;5.10;99.90
77829;DHT22;67019;51.034;3.728;2023-12-04T22:08:38;5.10;99.90
77829;DHT22;67019;51.034;3.728;2023-12-04T22:11:06;5.10;99.90
77829;DHT22;67019;51.034;3.728;2023-12-04T22:13:35;5.10;99.90
77829;DHT22;67019;51.034;3.728;2023-12-04T22:16:03;5.20;99.90
77829;DHT22;67019;51.034;3.728;2023-12-04T22:18:32;5.30;99.90
77829;DHT22;67019;51.034;3.728;2023-12-04T22:21:01;5.30;99.90
77829;DHT22;67019;51.034;3.728;2023-12-04T22:23:29;5.30;99.90
77829;DHT22;67019;51.034;3.728;2023-12-04T22:26:02;5.20;99.90
77829;DHT22;67019;51.034;3.728;2023-12-04T22:28:29;5.00;99.90
77829;DHT22;67019;51.034;3.728;2023-12-04T22:30:59;5.30;99.90
77829;DHT22;67019;51.034;3.728;2023-12-04T22:33:27;5.20;99.90
77829;DHT22;67019;51.034;3.728;2023-12-04T22:35:59;5.40;99.90
77829;DHT22;67019;51.034;3.728;2023-12-04T22:38:27;5.30;99.90
77829;DHT22;67019;51.034;3.728;2023-12-04T22:40:55;6.10;99.90
77829;DHT22;67019;51.034;3.728;2023-12-04T22:43:22;5.40;99.90
77829;DHT22;67019;51.034;3.728;2023-12-04T22:45:50;5.40;99.90
77829;DHT22;67019;51.034;3.728;2023-12-04T22:48:17;5.40;99.90
77829;DHT22;67019;51.034;3.728;2023-12-04T22:50:45;5.30;99.90
77829;DHT22;67019;51.034;3.728;2023-12-04T22:53:14;5.30;99.90
77829;DHT22;67019;51.034;3.728;2023-12-04T22:55:42;5.30;99.90
77829;DHT22;67019;51.034;3.728;2023-12-04T22:58:09;5.40;99.90
77829;DHT22;67019;51.034;3.728;2023-12-04T23:00:37;5.40;99.90
77829;DHT22;67019;51.034;3.728;2023-12-04T23:03:05;5.50;99.90
77829;DHT22;67019;51.034;3.728;2023-12-04T23:05:32;5.50;99.90
77829;DHT22;67019;51.034;3.728;2023-12-04T23:08:02;5.50;99.90
77829;DHT22;67019;51.034;3.728;2023-12-04T23:10:29;5.30;99.90
77829;DHT22;67019;51.034;3.728;2023-12-04T23:12:58;5.40;99.90
77829;DHT22;67019;51.034;3.728;2023-12-04T23:15:26;5.60;99.90
77829;DHT22;67019;51.034;3.728;2023-12-04T23:17:54;5.30;99.90
77829;DHT22;67019;51.034;3.728;2023-12-04T23:20:21;5.70;99.90
77829;DHT22;67019;51.034;3.728;2023-12-04T23:22:49;5.30;99.90
77829;DHT22;67019;51.034;3.728;2023-12-04T23:25:17;5.60;99.90
77829;DHT22;67019;51.034;3.728;2023-12-04T23:27:45;5.40;99.90
77829;DHT22;67019;51.034;3.728;2023-12-04T23:30:12;5.30;99.90
77829;DHT22;67019;51.034;3.728;2023-12-04T23:32:40;5.30;99.90
77829;DHT22;67019;51.034;3.728;2023-12-04T23:35:09;5.40;99.90
77829;DHT22;67019;51.034;3.728;2023-12-04T23:37:38;5.70;99.90
77829;DHT22;67019;51.034;3.728;2023-12-04T23:40:06;5.50;99.90
77829;DHT22;67019;51.034;3.728;2023-12-04T23:42:34;5.50;99.90
77829;DHT22;67019;51.034;3.728;2023-12-04T23:45:02;5.60;99.90
77829;DHT22;67019;51.034;3.728;2023-12-04T23:47:29;5.50;99.90
77829;DHT22;67019;51.034;3.728;2023-12-04T23:49:57;5.70;99.90
77829;DHT22;67019;51.034;3.728;2023-12-04T23:52:24;5.50;99.90
77829;DHT22;67019;51.034;3.728;2023-12-04T23:54:53;5.40;99.90
77829;DHT22;67019;51.034;3.728;2023-12-04T23:57:21;5.40;99.90
77829;DHT22;67019;51.034;3.728;2023-12-04T23:59:48;5.30;99.90
